sensor_id;sensor_type;location;lat;lon;timestamp;P1;durP1;ratioP1;P2;durP2;ratioP2
23384;SDS011;11865;45.394;10.978;2023-04-03T00:01:10;6.15;;;3.95;;
23384;SDS011;11865;45.394;10.978;2023-04-03T00:03:37;6.05;;;4.40;;
23384;SDS011;11865;45.394;10.978;2023-04-03T00:06:05;7.53;;;4.07;;
23384;SDS011;11865;45.394;10.978;2023-04-03T00:08:34;6.10;;;4.15;;
23384;SDS011;11865;45.394;10.978;2023-04-03T00:11:02;6.18;;;4.22;;
23384;SDS011;11865;45.394;10.978;2023-04-03T00:13:30;6.65;;;3.97;;
23384;SDS011;11865;45.394;10.978;2023-04-03T00:15:59;4.80;;;3.85;;
23384;SDS011;11865;45.394;10.978;2023-04-03T00:18:27;7.03;;;4.45;;
23384;SDS011;11865;45.394;10.978;2023-04-03T00:20:54;5.60;;;3.97;;
23384;SDS011;11865;45.394;10.978;2023-04-03T00:23:22;7.25;;;3.92;;
23384;SDS011;11865;45.394;10.978;2023-04-03T00:25:50;5.22;;;3.30;;
23384;SDS011;11865;45.394;10.978;2023-04-03T00:28:19;5.03;;;3.20;;
23384;SDS011;11865;45.394;10.978;2023-04-03T00:30:51;5.72;;;3.17;;
23384;SDS011;11865;45.394;10.978;2023-04-03T00:33:19;6.77;;;2.73;;
23384;SDS011;11865;45.394;10.978;2023-04-03T00:35:51;4.90;;;2.65;;
23384;SDS011;11865;45.394;10.978;2023-04-03T00:38:19;3.75;;;2.65;;
23384;SDS011;11865;45.394;10.978;2023-04-03T00:40:48;4.63;;;3.20;;
23384;SDS011;11865;45.394;10.978;2023-04-03T00:43:21;4.55;;;3.10;;
23384;SDS011;11865;45.394;10.978;2023-04-03T00:45:54;5.07;;;2.75;;
23384;SDS011;11865;45.394;10.978;2023-04-03T00:48:27;5.30;;;2.92;;
23384;SDS011;11865;45.394;10.978;2023-04-03T00:50:58;4.63;;;2.78;;
23384;SDS011;11865;45.394;10.978;2023-04-03T00:53:28;3.88;;;3.08;;
23384;SDS011;11865;45.394;10.978;2023-04-03T00:56:10;3.95;;;2.65;;
23384;SDS011;11865;45.394;10.978;2023-04-03T00:58:42;4.15;;;2.60;;
23384;SDS011;11865;45.394;10.978;2023-04-03T01:01:15;5.65;;;2.47;;
23384;SDS011;11865;45.394;10.978;2023-04-03T01:03:47;5.97;;;2.75;;
23384;SDS011;11865;45.394;10.978;2023-04-03T01:06:15;4.43;;;2.75;;
23384;SDS011;11865;45.394;10.978;2023-04-03T01:08:47;4.43;;;2.60;;
23384;SDS011;11865;45.394;10.978;2023-04-03T01:11:16;6.57;;;3.10;;
23384;SDS011;11865;45.394;10.978;2023-04-03T01:13:44;5.45;;;2.45;;
23384;SDS011;11865;45.394;10.978;2023-04-03T01:16:12;6.53;;;2.53;;
23384;SDS011;11865;45.394;10.978;2023-04-03T01:18:40;4.55;;;2.50;;
23384;SDS011;11865;45.394;10.978;2023-04-03T01:26:49;7.22;;;2.50;;
23384;SDS011;11865;45.394;10.978;2023-04-03T01:29:17;3.50;;;2.70;;
23384;SDS011;11865;45.394;10.978;2023-04-03T01:34:19;4.50;;;3.05;;
23384;SDS011;11865;45.394;10.978;2023-04-03T01:36:47;6.05;;;2.95;;
23384;SDS011;11865;45.394;10.978;2023-04-03T01:39:14;5.70;;;2.80;;
23384;SDS011;11865;45.394;10.978;2023-04-03T01:41:42;4.30;;;2.70;;
23384;SDS011;11865;45.394;10.978;2023-04-03T01:44:15;3.95;;;2.83;;
23384;SDS011;11865;45.394;10.978;2023-04-03T01:46:44;4.05;;;2.80;;
23384;SDS011;11865;45.394;10.978;2023-04-03T01:49:12;4.15;;;2.92;;
23384;SDS011;11865;45.394;10.978;2023-04-03T01:51:39;4.20;;;2.50;;
23384;SDS011;11865;45.394;10.978;2023-04-03T01:54:07;4.28;;;2.30;;
23384;SDS011;11865;45.394;10.978;2023-04-03T01:56:34;4.95;;;2.70;;
23384;SDS011;11865;45.394;10.978;2023-04-03T01:59:02;7.60;;;2.67;;
23384;SDS011;11865;45.394;10.978;2023-04-03T02:01:30;4.82;;;2.88;;
23384;SDS011;11865;45.394;10.978;2023-04-03T02:03:57;5.55;;;3.15;;
23384;SDS011;11865;45.394;10.978;2023-04-03T02:06:25;7.05;;;2.80;;
23384;SDS011;11865;45.394;10.978;2023-04-03T02:08:53;6.88;;;3.10;;
23384;SDS011;11865;45.394;10.978;2023-04-03T02:11:21;6.53;;;3.15;;
23384;SDS011;11865;45.394;10.978;2023-04-03T02:13:48;4.90;;;3.03;;
23384;SDS011;11865;45.394;10.978;2023-04-03T02:16:16;6.47;;;3.35;;
23384;SDS011;11865;45.394;10.978;2023-04-03T02:18:43;4.72;;;2.75;;
23384;SDS011;11865;45.394;10.978;2023-04-03T02:21:11;4.13;;;2.65;;
23384;SDS011;11865;45.394;10.978;2023-04-03T02:23:39;4.95;;;2.70;;
23384;SDS011;11865;45.394;10.978;2023-04-03T02:26:07;6.93;;;3.25;;
23384;SDS011;11865;45.394;10.978;2023-04-03T02:28:37;3.72;;;2.63;;
23384;SDS011;11865;45.394;10.978;2023-04-03T02:31:07;4.75;;;2.22;;
23384;SDS011;11865;45.394;10.978;2023-04-03T02:33:37;5.25;;;2.65;;
23384;SDS011;11865;45.394;10.978;2023-04-03T02:36:08;3.83;;;2.53;;
23384;SDS011;11865;45.394;10.978;2023-04-03T02:38:38;5.30;;;2.55;;
23384;SDS011;11865;45.394;10.978;2023-04-03T02:41:06;3.38;;;2.38;;
23384;SDS011;11865;45.394;10.978;2023-04-03T02:43:36;5.07;;;2.58;;
23384;SDS011;11865;45.394;10.978;2023-04-03T02:46:05;5.00;;;2.38;;
23384;SDS011;11865;45.394;10.978;2023-04-03T02:48:33;5.75;;;2.53;;
23384;SDS011;11865;45.394;10.978;2023-04-03T02:51:01;3.88;;;2.53;;
23384;SDS011;11865;45.394;10.978;2023-04-03T02:53:28;4.07;;;2.50;;
23384;SDS011;11865;45.394;10.978;2023-04-03T02:55:57;5.45;;;2.45;;
23384;SDS011;11865;45.394;10.978;2023-04-03T02:58:24;4.85;;;2.50;;
23384;SDS011;11865;45.394;10.978;2023-04-03T03:00:55;10.07;;;2.90;;
23384;SDS011;11865;45.394;10.978;2023-04-03T03:03:22;9.63;;;3.00;;
23384;SDS011;11865;45.394;10.978;2023-04-03T03:06:00;4.88;;;2.50;;
23384;SDS011;11865;45.394;10.978;2023-04-03T03:08:33;3.25;;;2.30;;
23384;SDS011;11865;45.394;10.978;2023-04-03T03:11:01;7.07;;;2.30;;
23384;SDS011;11865;45.394;10.978;2023-04-03T03:13:29;5.10;;;2.35;;
23384;SDS011;11865;45.394;10.978;2023-04-03T03:15:57;4.75;;;2.33;;
23384;SDS011;11865;45.394;10.978;2023-04-03T03:18:25;4.57;;;2.00;;
23384;SDS011;11865;45.394;10.978;2023-04-03T03:20:53;3.47;;;2.10;;
23384;SDS011;11865;45.394;10.978;2023-04-03T03:23:23;5.45;;;2.20;;
23384;SDS011;11865;45.394;10.978;2023-04-03T03:25:56;4.22;;;1.83;;
23384;SDS011;11865;45.394;10.978;2023-04-03T03:28:28;6.85;;;2.28;;
23384;SDS011;11865;45.394;10.978;2023-04-03T03:30:57;5.85;;;2.67;;
23384;SDS011;11865;45.394;10.978;2023-04-03T03:33:25;8.82;;;2.67;;
23384;SDS011;11865;45.394;10.978;2023-04-03T03:35:53;3.65;;;1.90;;
23384;SDS011;11865;45.394;10.978;2023-04-03T03:38:22;4.68;;;2.38;;
23384;SDS011;11865;45.394;10.978;2023-04-03T03:40:50;6.47;;;2.40;;
23384;SDS011;11865;45.394;10.978;2023-04-03T03:43:20;6.00;;;2.33;;
23384;SDS011;11865;45.394;10.978;2023-04-03T03:45:50;7.97;;;2.72;;
23384;SDS011;11865;45.394;10.978;2023-04-03T03:48:19;17.55;;;2.28;;
23384;SDS011;11865;45.394;10.978;2023-04-03T03:50:48;5.28;;;1.95;;
23384;SDS011;11865;45.394;10.978;2023-04-03T03:53:18;8.73;;;2.42;;
23384;SDS011;11865;45.394;10.978;2023-04-03T03:55:47;7.60;;;2.60;;
23384;SDS011;11865;45.394;10.978;2023-04-03T03:58:15;4.30;;;2.53;;
23384;SDS011;11865;45.394;10.978;2023-04-03T04:00:43;7.57;;;2.60;;
23384;SDS011;11865;45.394;10.978;2023-04-03T04:03:11;7.97;;;2.40;;
23384;SDS011;11865;45.394;10.978;2023-04-03T04:05:39;6.50;;;2.85;;
23384;SDS011;11865;45.394;10.978;2023-04-03T04:08:07;8.52;;;3.15;;
23384;SDS011;11865;45.394;10.978;2023-04-03T04:10:34;4.50;;;2.90;;
23384;SDS011;11865;45.394;10.978;2023-04-03T04:13:05;3.72;;;2.70;;
23384;SDS011;11865;45.394;10.978;2023-04-03T04:15:33;7.07;;;2.90;;
23384;SDS011;11865;45.394;10.978;2023-04-03T04:18:02;4.40;;;2.90;;
23384;SDS011;11865;45.394;10.978;2023-04-03T04:20:31;13.23;;;3.45;;
23384;SDS011;11865;45.394;10.978;2023-04-03T04:22:59;7.22;;;3.45;;
23384;SDS011;11865;45.394;10.978;2023-04-03T04:25:27;12.30;;;3.95;;
23384;SDS011;11865;45.394;10.978;2023-04-03T04:27:54;5.72;;;2.50;;
23384;SDS011;11865;45.394;10.978;2023-04-03T04:30:22;6.07;;;3.03;;
23384;SDS011;11865;45.394;10.978;2023-04-03T04:32:50;7.38;;;3.00;;
23384;SDS011;11865;45.394;10.978;2023-04-03T04:35:18;10.88;;;3.20;;
23384;SDS011;11865;45.394;10.978;2023-04-03T04:37:48;5.40;;;3.00;;
23384;SDS011;11865;45.394;10.978;2023-04-03T04:40:16;7.57;;;2.65;;
23384;SDS011;11865;45.394;10.978;2023-04-03T04:42:44;6.70;;;2.70;;
23384;SDS011;11865;45.394;10.978;2023-04-03T04:45:12;4.88;;;2.53;;
23384;SDS011;11865;45.394;10.978;2023-04-03T04:47:42;3.92;;;2.67;;
23384;SDS011;11865;45.394;10.978;2023-04-03T04:50:10;10.25;;;3.20;;
23384;SDS011;11865;45.394;10.978;2023-04-03T04:52:39;7.05;;;3.30;;
23384;SDS011;11865;45.394;10.978;2023-04-03T04:55:07;6.53;;;3.08;;
23384;SDS011;11865;45.394;10.978;2023-04-03T04:57:35;4.28;;;2.83;;
23384;SDS011;11865;45.394;10.978;2023-04-03T05:00:04;5.72;;;3.10;;
23384;SDS011;11865;45.394;10.978;2023-04-03T05:02:32;7.38;;;3.30;;
23384;SDS011;11865;45.394;10.978;2023-04-03T05:05:02;11.75;;;3.38;;
23384;SDS011;11865;45.394;10.978;2023-04-03T05:07:32;7.97;;;3.28;;
23384;SDS011;11865;45.394;10.978;2023-04-03T05:10:01;6.68;;;3.13;;
23384;SDS011;11865;45.394;10.978;2023-04-03T05:12:31;10.85;;;4.03;;
23384;SDS011;11865;45.394;10.978;2023-04-03T05:15:02;11.68;;;3.55;;
23384;SDS011;11865;45.394;10.978;2023-04-03T05:17:30;11.55;;;3.35;;
23384;SDS011;11865;45.394;10.978;2023-04-03T05:19:59;7.80;;;2.90;;
23384;SDS011;11865;45.394;10.978;2023-04-03T05:22:27;4.55;;;2.40;;
23384;SDS011;11865;45.394;10.978;2023-04-03T05:25:00;6.63;;;2.20;;
23384;SDS011;11865;45.394;10.978;2023-04-03T05:27:27;7.72;;;2.30;;
23384;SDS011;11865;45.394;10.978;2023-04-03T05:29:57;4.15;;;2.45;;
23384;SDS011;11865;45.394;10.978;2023-04-03T05:32:25;5.50;;;2.70;;
23384;SDS011;11865;45.394;10.978;2023-04-03T05:35:16;3.05;;;2.10;;
23384;SDS011;11865;45.394;10.978;2023-04-03T05:37:45;3.40;;;2.15;;
23384;SDS011;11865;45.394;10.978;2023-04-03T05:40:14;4.55;;;2.67;;
23384;SDS011;11865;45.394;10.978;2023-04-03T05:42:46;5.05;;;2.30;;
23384;SDS011;11865;45.394;10.978;2023-04-03T05:45:15;3.80;;;2.28;;
23384;SDS011;11865;45.394;10.978;2023-04-03T05:47:43;7.22;;;3.08;;
23384;SDS011;11865;45.394;10.978;2023-04-03T05:50:11;7.30;;;2.28;;
23384;SDS011;11865;45.394;10.978;2023-04-03T05:52:40;2.92;;;2.15;;
23384;SDS011;11865;45.394;10.978;2023-04-03T05:55:11;4.78;;;2.28;;
23384;SDS011;11865;45.394;10.978;2023-04-03T05:57:39;2.53;;;1.83;;
23384;SDS011;11865;45.394;10.978;2023-04-03T06:00:07;3.45;;;2.00;;
23384;SDS011;11865;45.394;10.978;2023-04-03T06:02:48;4.95;;;2.90;;
23384;SDS011;11865;45.394;10.978;2023-04-03T06:05:20;6.22;;;1.98;;
23384;SDS011;11865;45.394;10.978;2023-04-03T06:07:50;7.15;;;2.70;;
23384;SDS011;11865;45.394;10.978;2023-04-03T06:10:17;4.32;;;2.10;;
23384;SDS011;11865;45.394;10.978;2023-04-03T06:12:45;6.93;;;3.40;;
23384;SDS011;11865;45.394;10.978;2023-04-03T06:15:12;4.82;;;1.77;;
23384;SDS011;11865;45.394;10.978;2023-04-03T06:17:40;4.47;;;2.00;;
23384;SDS011;11865;45.394;10.978;2023-04-03T06:20:08;5.20;;;1.98;;
23384;SDS011;11865;45.394;10.978;2023-04-03T06:22:36;6.95;;;2.38;;
23384;SDS011;11865;45.394;10.978;2023-04-03T06:25:04;10.40;;;2.47;;
23384;SDS011;11865;45.394;10.978;2023-04-03T06:27:33;5.20;;;1.88;;
23384;SDS011;11865;45.394;10.978;2023-04-03T06:30:00;3.13;;;1.70;;
23384;SDS011;11865;45.394;10.978;2023-04-03T06:32:27;3.42;;;1.95;;
23384;SDS011;11865;45.394;10.978;2023-04-03T06:34:55;2.72;;;1.63;;
23384;SDS011;11865;45.394;10.978;2023-04-03T06:37:24;5.18;;;1.90;;
23384;SDS011;11865;45.394;10.978;2023-04-03T06:39:59;6.43;;;1.75;;
23384;SDS011;11865;45.394;10.978;2023-04-03T06:42:27;3.58;;;2.03;;
23384;SDS011;11865;45.394;10.978;2023-04-03T06:45:03;4.05;;;2.08;;
23384;SDS011;11865;45.394;10.978;2023-04-03T06:47:31;4.60;;;1.85;;
23384;SDS011;11865;45.394;10.978;2023-04-03T06:49:59;3.28;;;1.63;;
23384;SDS011;11865;45.394;10.978;2023-04-03T06:52:27;2.88;;;1.60;;
23384;SDS011;11865;45.394;10.978;2023-04-03T06:54:54;5.70;;;1.30;;
23384;SDS011;11865;45.394;10.978;2023-04-03T06:57:24;5.75;;;1.77;;
23384;SDS011;11865;45.394;10.978;2023-04-03T06:59:52;1.95;;;1.60;;
23384;SDS011;11865;45.394;10.978;2023-04-03T07:02:19;2.00;;;1.50;;
23384;SDS011;11865;45.394;10.978;2023-04-03T07:04:47;5.40;;;2.20;;
23384;SDS011;11865;45.394;10.978;2023-04-03T07:07:15;6.00;;;2.28;;
23384;SDS011;11865;45.394;10.978;2023-04-03T07:09:44;5.03;;;1.70;;
23384;SDS011;11865;45.394;10.978;2023-04-03T07:12:13;3.80;;;1.48;;
23384;SDS011;11865;45.394;10.978;2023-04-03T07:14:41;3.70;;;1.88;;
23384;SDS011;11865;45.394;10.978;2023-04-03T07:17:09;5.10;;;2.50;;
23384;SDS011;11865;45.394;10.978;2023-04-03T07:19:37;11.20;;;3.60;;
23384;SDS011;11865;45.394;10.978;2023-04-03T07:22:04;7.70;;;3.15;;
23384;SDS011;11865;45.394;10.978;2023-04-03T07:24:32;3.42;;;1.75;;
23384;SDS011;11865;45.394;10.978;2023-04-03T07:27:00;5.60;;;2.40;;
23384;SDS011;11865;45.394;10.978;2023-04-03T07:29:28;8.52;;;2.58;;
23384;SDS011;11865;45.394;10.978;2023-04-03T07:31:55;5.68;;;2.28;;
23384;SDS011;11865;45.394;10.978;2023-04-03T07:34:23;4.47;;;2.20;;
23384;SDS011;11865;45.394;10.978;2023-04-03T07:36:51;9.88;;;2.30;;
23384;SDS011;11865;45.394;10.978;2023-04-03T07:39:18;6.82;;;2.40;;
23384;SDS011;11865;45.394;10.978;2023-04-03T07:41:45;5.43;;;2.17;;
23384;SDS011;11865;45.394;10.978;2023-04-03T07:44:13;6.93;;;1.90;;
23384;SDS011;11865;45.394;10.978;2023-04-03T07:46:41;4.60;;;1.77;;
23384;SDS011;11865;45.394;10.978;2023-04-03T07:49:09;6.47;;;2.33;;
23384;SDS011;11865;45.394;10.978;2023-04-03T07:51:36;8.68;;;1.92;;
23384;SDS011;11865;45.394;10.978;2023-04-03T07:54:04;4.32;;;2.10;;
23384;SDS011;11865;45.394;10.978;2023-04-03T07:56:32;4.85;;;2.95;;
23384;SDS011;11865;45.394;10.978;2023-04-03T07:59:00;5.82;;;2.95;;
23384;SDS011;11865;45.394;10.978;2023-04-03T08:01:27;5.28;;;1.95;;
23384;SDS011;11865;45.394;10.978;2023-04-03T08:03:55;6.03;;;1.73;;
23384;SDS011;11865;45.394;10.978;2023-04-03T08:06:23;7.40;;;2.38;;
23384;SDS011;11865;45.394;10.978;2023-04-03T08:09:10;6.38;;;2.45;;
23384;SDS011;11865;45.394;10.978;2023-04-03T08:11:39;3.55;;;2.03;;
23384;SDS011;11865;45.394;10.978;2023-04-03T08:14:06;8.27;;;2.10;;
23384;SDS011;11865;45.394;10.978;2023-04-03T08:16:34;5.47;;;2.60;;
23384;SDS011;11865;45.394;10.978;2023-04-03T08:19:02;7.10;;;2.30;;
23384;SDS011;11865;45.394;10.978;2023-04-03T08:21:35;7.00;;;2.70;;
23384;SDS011;11865;45.394;10.978;2023-04-03T08:24:02;6.72;;;2.20;;
23384;SDS011;11865;45.394;10.978;2023-04-03T08:26:30;3.67;;;2.38;;
23384;SDS011;11865;45.394;10.978;2023-04-03T08:28:58;13.05;;;3.20;;
23384;SDS011;11865;45.394;10.978;2023-04-03T08:31:26;6.93;;;2.50;;
23384;SDS011;11865;45.394;10.978;2023-04-03T08:33:56;7.68;;;2.92;;
23384;SDS011;11865;45.394;10.978;2023-04-03T08:36:25;5.32;;;3.03;;
23384;SDS011;11865;45.394;10.978;2023-04-03T08:38:54;7.68;;;3.03;;
23384;SDS011;11865;45.394;10.978;2023-04-03T08:47:01;3.47;;;1.90;;
23384;SDS011;11865;45.394;10.978;2023-04-03T08:52:19;6.57;;;2.63;;
23384;SDS011;11865;45.394;10.978;2023-04-03T08:54:56;4.60;;;2.38;;
23384;SDS011;11865;45.394;10.978;2023-04-03T08:57:32;9.10;;;2.67;;
23384;SDS011;11865;45.394;10.978;2023-04-03T09:00:09;6.57;;;2.42;;
23384;SDS011;11865;45.394;10.978;2023-04-03T09:02:51;3.00;;;2.25;;
23384;SDS011;11865;45.394;10.978;2023-04-03T09:08:17;7.47;;;2.38;;
23384;SDS011;11865;45.394;10.978;2023-04-03T09:10:49;10.80;;;3.13;;
23384;SDS011;11865;45.394;10.978;2023-04-03T09:16:16;5.70;;;2.53;;
23384;SDS011;11865;45.394;10.978;2023-04-03T09:19:13;8.10;;;2.53;;
23384;SDS011;11865;45.394;10.978;2023-04-03T09:21:47;6.80;;;2.58;;
23384;SDS011;11865;45.394;10.978;2023-04-03T09:24:15;5.47;;;2.83;;
23384;SDS011;11865;45.394;10.978;2023-04-03T09:29:30;3.72;;;2.70;;
23384;SDS011;11865;45.394;10.978;2023-04-03T09:32:01;8.75;;;2.80;;
23384;SDS011;11865;45.394;10.978;2023-04-03T09:34:36;9.32;;;2.90;;
23384;SDS011;11865;45.394;10.978;2023-04-03T09:37:04;6.07;;;3.03;;
23384;SDS011;11865;45.394;10.978;2023-04-03T09:39:47;5.13;;;3.15;;
23384;SDS011;11865;45.394;10.978;2023-04-03T09:42:21;4.97;;;2.67;;
23384;SDS011;11865;45.394;10.978;2023-04-03T09:44:58;6.18;;;2.70;;
23384;SDS011;11865;45.394;10.978;2023-04-03T09:50:09;11.75;;;3.00;;
23384;SDS011;11865;45.394;10.978;2023-04-03T09:52:49;7.97;;;2.92;;
23384;SDS011;11865;45.394;10.978;2023-04-03T09:55:23;6.20;;;2.92;;
23384;SDS011;11865;45.394;10.978;2023-04-03T09:57:57;6.43;;;2.90;;
23384;SDS011;11865;45.394;10.978;2023-04-03T10:00:28;7.60;;;3.25;;
23384;SDS011;11865;45.394;10.978;2023-04-03T10:03:04;9.07;;;3.55;;
23384;SDS011;11865;45.394;10.978;2023-04-03T10:05:36;7.15;;;2.85;;
23384;SDS011;11865;45.394;10.978;2023-04-03T10:10:43;5.95;;;3.25;;
23384;SDS011;11865;45.394;10.978;2023-04-03T10:13:16;6.43;;;3.63;;
23384;SDS011;11865;45.394;10.978;2023-04-03T10:15:50;7.93;;;3.17;;
23384;SDS011;11865;45.394;10.978;2023-04-03T10:18:31;6.65;;;3.28;;
23384;SDS011;11865;45.394;10.978;2023-04-03T10:21:02;8.25;;;3.45;;
23384;SDS011;11865;45.394;10.978;2023-04-03T10:24:16;9.70;;;3.50;;
23384;SDS011;11865;45.394;10.978;2023-04-03T10:26:56;7.28;;;3.50;;
23384;SDS011;11865;45.394;10.978;2023-04-03T10:29:36;9.65;;;2.67;;
23384;SDS011;11865;45.394;10.978;2023-04-03T10:32:22;7.88;;;2.92;;
23384;SDS011;11865;45.394;10.978;2023-04-03T10:35:08;8.15;;;3.15;;
23384;SDS011;11865;45.394;10.978;2023-04-03T10:46:52;9.65;;;3.65;;
23384;SDS011;11865;45.394;10.978;2023-04-03T10:49:19;5.63;;;2.85;;
23384;SDS011;11865;45.394;10.978;2023-04-03T10:51:58;7.90;;;3.25;;
23384;SDS011;11865;45.394;10.978;2023-04-03T10:54:34;7.78;;;2.92;;
23384;SDS011;11865;45.394;10.978;2023-04-03T10:57:10;8.48;;;3.75;;
23384;SDS011;11865;45.394;10.978;2023-04-03T11:07:46;5.88;;;2.70;;
23384;SDS011;11865;45.394;10.978;2023-04-03T11:12:56;7.95;;;3.13;;
23384;SDS011;11865;45.394;10.978;2023-04-03T11:15:33;6.60;;;2.85;;
23384;SDS011;11865;45.394;10.978;2023-04-03T11:18:02;9.63;;;3.10;;
23384;SDS011;11865;45.394;10.978;2023-04-03T11:20:37;9.85;;;3.83;;
23384;SDS011;11865;45.394;10.978;2023-04-03T11:25:53;9.25;;;3.30;;
23384;SDS011;11865;45.394;10.978;2023-04-03T11:28:25;9.30;;;2.83;;
23384;SDS011;11865;45.394;10.978;2023-04-03T11:31:08;6.28;;;3.05;;
23384;SDS011;11865;45.394;10.978;2023-04-03T11:36:29;4.72;;;2.88;;
23384;SDS011;11865;45.394;10.978;2023-04-03T11:39:22;10.82;;;3.22;;
23384;SDS011;11865;45.394;10.978;2023-04-03T11:42:00;4.65;;;3.10;;
23384;SDS011;11865;45.394;10.978;2023-04-03T11:44:46;7.30;;;2.85;;
23384;SDS011;11865;45.394;10.978;2023-04-03T11:47:43;6.10;;;2.53;;
23384;SDS011;11865;45.394;10.978;2023-04-03T11:58:17;8.10;;;3.05;;
23384;SDS011;11865;45.394;10.978;2023-04-03T12:03:31;14.15;;;3.70;;
23384;SDS011;11865;45.394;10.978;2023-04-03T12:13:41;9.02;;;3.60;;
23384;SDS011;11865;45.394;10.978;2023-04-03T12:26:51;5.45;;;3.28;;
23384;SDS011;11865;45.394;10.978;2023-04-03T12:29:42;9.90;;;3.45;;
23384;SDS011;11865;45.394;10.978;2023-04-03T12:41:11;7.55;;;3.55;;
23384;SDS011;11865;45.394;10.978;2023-04-03T12:46:53;8.57;;;3.13;;
23384;SDS011;11865;45.394;10.978;2023-04-03T12:49:24;9.77;;;2.80;;
23384;SDS011;11865;45.394;10.978;2023-04-03T12:51:56;12.73;;;3.08;;
23384;SDS011;11865;45.394;10.978;2023-04-03T12:57:21;9.38;;;2.92;;
23384;SDS011;11865;45.394;10.978;2023-04-03T12:59:51;5.72;;;2.80;;
23384;SDS011;11865;45.394;10.978;2023-04-03T13:04:58;5.95;;;2.90;;
23384;SDS011;11865;45.394;10.978;2023-04-03T13:07:49;8.50;;;2.85;;
23384;SDS011;11865;45.394;10.978;2023-04-03T13:10:26;6.47;;;2.95;;
23384;SDS011;11865;45.394;10.978;2023-04-03T13:12:57;6.28;;;2.83;;
23384;SDS011;11865;45.394;10.978;2023-04-03T13:15:44;14.52;;;3.95;;
23384;SDS011;11865;45.394;10.978;2023-04-03T13:20:49;9.90;;;3.90;;
23384;SDS011;11865;45.394;10.978;2023-04-03T13:23:17;10.40;;;3.47;;
23384;SDS011;11865;45.394;10.978;2023-04-03T13:25:47;8.43;;;3.67;;
23384;SDS011;11865;45.394;10.978;2023-04-03T13:28:18;9.48;;;3.05;;
23384;SDS011;11865;45.394;10.978;2023-04-03T13:30:55;6.38;;;3.00;;
23384;SDS011;11865;45.394;10.978;2023-04-03T13:33:26;6.63;;;3.10;;
23384;SDS011;11865;45.394;10.978;2023-04-03T13:36:08;8.27;;;3.65;;
23384;SDS011;11865;45.394;10.978;2023-04-03T13:38:46;6.03;;;3.60;;
23384;SDS011;11865;45.394;10.978;2023-04-03T13:41:26;8.50;;;2.70;;
23384;SDS011;11865;45.394;10.978;2023-04-03T13:44:14;5.68;;;3.13;;
23384;SDS011;11865;45.394;10.978;2023-04-03T13:46:48;5.43;;;3.40;;
23384;SDS011;11865;45.394;10.978;2023-04-03T13:49:21;11.55;;;3.45;;
23384;SDS011;11865;45.394;10.978;2023-04-03T13:51:49;5.63;;;2.60;;
23384;SDS011;11865;45.394;10.978;2023-04-03T13:54:36;6.53;;;3.35;;
23384;SDS011;11865;45.394;10.978;2023-04-03T13:57:13;5.80;;;3.25;;
23384;SDS011;11865;45.394;10.978;2023-04-03T13:59:42;17.75;;;4.57;;
23384;SDS011;11865;45.394;10.978;2023-04-03T14:02:31;11.18;;;4.22;;
23384;SDS011;11865;45.394;10.978;2023-04-03T14:05:00;13.50;;;3.88;;
23384;SDS011;11865;45.394;10.978;2023-04-03T14:07:30;7.25;;;2.95;;
23384;SDS011;11865;45.394;10.978;2023-04-03T14:09:58;7.53;;;2.70;;
23384;SDS011;11865;45.394;10.978;2023-04-03T14:12:27;7.95;;;3.45;;
23384;SDS011;11865;45.394;10.978;2023-04-03T14:15:01;8.50;;;3.20;;
23384;SDS011;11865;45.394;10.978;2023-04-03T14:17:30;10.40;;;3.72;;
23384;SDS011;11865;45.394;10.978;2023-04-03T14:19:58;10.80;;;3.58;;
23384;SDS011;11865;45.394;10.978;2023-04-03T14:22:29;6.22;;;3.22;;
23384;SDS011;11865;45.394;10.978;2023-04-03T14:24:59;9.73;;;2.95;;
23384;SDS011;11865;45.394;10.978;2023-04-03T14:27:29;8.65;;;3.00;;
23384;SDS011;11865;45.394;10.978;2023-04-03T14:30:02;8.68;;;4.15;;
23384;SDS011;11865;45.394;10.978;2023-04-03T14:32:31;9.32;;;3.92;;
23384;SDS011;11865;45.394;10.978;2023-04-03T14:34:59;8.77;;;3.83;;
23384;SDS011;11865;45.394;10.978;2023-04-03T14:37:28;13.98;;;4.03;;
23384;SDS011;11865;45.394;10.978;2023-04-03T14:39:57;4.05;;;2.65;;
23384;SDS011;11865;45.394;10.978;2023-04-03T14:42:28;8.38;;;2.83;;
23384;SDS011;11865;45.394;10.978;2023-04-03T14:44:58;9.77;;;2.72;;
23384;SDS011;11865;45.394;10.978;2023-04-03T14:47:28;6.75;;;2.83;;
23384;SDS011;11865;45.394;10.978;2023-04-03T14:50:02;6.75;;;3.60;;
23384;SDS011;11865;45.394;10.978;2023-04-03T14:52:33;13.77;;;3.72;;
23384;SDS011;11865;45.394;10.978;2023-04-03T14:55:03;6.65;;;3.53;;
23384;SDS011;11865;45.394;10.978;2023-04-03T14:57:32;14.25;;;4.30;;
23384;SDS011;11865;45.394;10.978;2023-04-03T15:00:02;11.82;;;3.65;;
23384;SDS011;11865;45.394;10.978;2023-04-03T15:02:37;8.60;;;3.40;;
23384;SDS011;11865;45.394;10.978;2023-04-03T15:05:07;7.93;;;3.75;;
23384;SDS011;11865;45.394;10.978;2023-04-03T15:07:38;5.93;;;3.08;;
23384;SDS011;11865;45.394;10.978;2023-04-03T15:10:28;10.88;;;3.45;;
23384;SDS011;11865;45.394;10.978;2023-04-03T15:12:57;6.72;;;3.08;;
23384;SDS011;11865;45.394;10.978;2023-04-03T15:15:27;11.18;;;3.15;;
23384;SDS011;11865;45.394;10.978;2023-04-03T15:17:56;9.90;;;3.63;;
23384;SDS011;11865;45.394;10.978;2023-04-03T15:20:26;7.88;;;2.97;;
23384;SDS011;11865;45.394;10.978;2023-04-03T15:22:54;6.07;;;3.35;;
23384;SDS011;11865;45.394;10.978;2023-04-03T15:25:23;12.27;;;3.80;;
23384;SDS011;11865;45.394;10.978;2023-04-03T15:27:53;8.57;;;3.10;;
23384;SDS011;11865;45.394;10.978;2023-04-03T15:30:22;7.13;;;2.75;;
23384;SDS011;11865;45.394;10.978;2023-04-03T15:32:49;17.58;;;3.97;;
23384;SDS011;11865;45.394;10.978;2023-04-03T15:35:17;13.88;;;3.53;;
23384;SDS011;11865;45.394;10.978;2023-04-03T15:37:45;10.35;;;3.53;;
23384;SDS011;11865;45.394;10.978;2023-04-03T15:40:13;8.15;;;3.00;;
23384;SDS011;11865;45.394;10.978;2023-04-03T15:42:41;7.00;;;2.53;;
23384;SDS011;11865;45.394;10.978;2023-04-03T15:45:08;13.68;;;6.22;;
23384;SDS011;11865;45.394;10.978;2023-04-03T15:47:37;5.85;;;3.33;;
23384;SDS011;11865;45.394;10.978;2023-04-03T15:50:05;6.18;;;2.70;;
23384;SDS011;11865;45.394;10.978;2023-04-03T15:52:34;5.15;;;2.92;;
23384;SDS011;11865;45.394;10.978;2023-04-03T15:55:02;5.55;;;2.90;;
23384;SDS011;11865;45.394;10.978;2023-04-03T15:57:31;9.65;;;2.92;;
23384;SDS011;11865;45.394;10.978;2023-04-03T16:02:32;4.95;;;2.25;;
23384;SDS011;11865;45.394;10.978;2023-04-03T16:05:00;8.15;;;2.55;;
23384;SDS011;11865;45.394;10.978;2023-04-03T16:07:29;6.95;;;2.60;;
23384;SDS011;11865;45.394;10.978;2023-04-03T16:09:57;11.43;;;3.63;;
23384;SDS011;11865;45.394;10.978;2023-04-03T16:12:24;6.90;;;3.40;;
23384;SDS011;11865;45.394;10.978;2023-04-03T16:14:52;7.55;;;3.45;;
23384;SDS011;11865;45.394;10.978;2023-04-03T16:17:19;7.57;;;2.97;;
23384;SDS011;11865;45.394;10.978;2023-04-03T16:19:47;7.78;;;3.00;;
23384;SDS011;11865;45.394;10.978;2023-04-03T16:22:15;7.60;;;2.50;;
23384;SDS011;11865;45.394;10.978;2023-04-03T16:24:42;9.90;;;3.30;;
23384;SDS011;11865;45.394;10.978;2023-04-03T16:27:10;5.32;;;2.40;;
23384;SDS011;11865;45.394;10.978;2023-04-03T16:29:37;4.15;;;2.28;;
23384;SDS011;11865;45.394;10.978;2023-04-03T16:32:05;6.70;;;2.50;;
23384;SDS011;11865;45.394;10.978;2023-04-03T16:34:32;8.77;;;2.30;;
23384;SDS011;11865;45.394;10.978;2023-04-03T16:37:00;5.55;;;2.25;;
23384;SDS011;11865;45.394;10.978;2023-04-03T16:39:28;3.33;;;2.05;;
23384;SDS011;11865;45.394;10.978;2023-04-03T16:41:55;5.85;;;2.65;;